This is the latest recevied weather packets stored in our database for station/object OH6NMY. If no packets are shown the sender has not sent any weather packets the latest 10 day(s).
| Time | Temp. | Humidity | Pressure | Rain* | Wind** | Luminosity | Snow |
|---|---|---|---|---|---|---|---|
| 1777786344 | 5.56° C | 63% | 1008.2 hPa | 0 mm | - | - | - |
| 1777784724 | 5.56° C | 66% | 1007.9 hPa | 0 mm | - | - | - |
| 1777784184 | 5.56° C | 69% | 1007.8 hPa | 0 mm | - | - | - |
| 1777782696 | 5° C | 77% | 1007.6 hPa | 0 mm | - | - | - |
| 1777781484 | 4.44° C | 86% | 1007.6 hPa | 0 mm | - | - | - |
| 1777779864 | 4.44° C | 89% | 1007.6 hPa | 0 mm | - | - | - |
| 1777778244 | 4.44° C | 91% | 1007.5 hPa | 0 mm | - | - | - |
| 1777773384 | 5° C | 93% | 1007.4 hPa | 0 mm | - | - | - |
| 1777771224 | 5.56° C | 94% | 1007.2 hPa | 0.25 mm | - | - | - |
| 1777770144 | 5.56° C | 94% | 1007.4 hPa | 0.25 mm | - | - | - |
| 1777764204 | 7.78° C | 79% | 1006.8 hPa | 0 mm | - | - | - |
| 1777761095 | 9.44° C | 68% | 1006.5 hPa | 0 mm | - | - | - |
| 1777753404 | 11.11° C | 60% | 1006.5 hPa | 0 mm | - | - | - |
| 1777751784 | 11.11° C | 60% | 1006.6 hPa | 0 mm | - | - | - |
| 1777751244 | 11.11° C | 60% | 1006.2 hPa | 0 mm | - | - | - |
| 1777745304 | 12.22° C | 57% | 1006.2 hPa | 0 mm | - | - | - |
| 1777743144 | 13.33° C | 53% | 1006.3 hPa | 0 mm | - | - | - |
| 1777742604 | 13.33° C | 53% | 1006.2 hPa | 0 mm | - | - | - |
| 1777740984 | 13.89° C | 50% | 1006.6 hPa | 0 mm | - | - | - |
| 1777737204 | 14.44° C | 46% | 1006.6 hPa | 0 mm | - | - | - |
| 1777733964 | 15.56° C | 45% | 1006.4 hPa | 0 mm | - | - | - |
| 1777733424 | 15.56° C | 45% | 1006.3 hPa | 0 mm | - | - | - |
| 1777728564 | 17.78° C | 43% | 1005.9 hPa | 0 mm | - | - | - |
| 1777721544 | 18.33° C | 45% | 1005.9 hPa | 0 mm | - | - | - |
| 1777720464 | 18.33° C | 42% | 1005.9 hPa | 0 mm | - | - | - |
* Rain latest hour (hover to see other rain measurements)
** Current wind speed in m/s (hover to see current wind gust speed)